sensor_id;sensor_type;location;lat;lon;timestamp;P1;durP1;ratioP1;P2;durP2;ratioP2
53977;SDS011;39886;47.984;-1.586;2023-06-26T00:00:41;1.63;;;1.50;;
53977;SDS011;39886;47.984;-1.586;2023-06-26T00:03:07;4.10;;;1.58;;
53977;SDS011;39886;47.984;-1.586;2023-06-26T00:05:33;1.80;;;1.42;;
53977;SDS011;39886;47.984;-1.586;2023-06-26T00:07:59;2.00;;;1.65;;
53977;SDS011;39886;47.984;-1.586;2023-06-26T00:10:26;2.28;;;1.30;;
53977;SDS011;39886;47.984;-1.586;2023-06-26T00:12:52;1.58;;;1.30;;
53977;SDS011;39886;47.984;-1.586;2023-06-26T00:15:18;1.70;;;1.50;;
53977;SDS011;39886;47.984;-1.586;2023-06-26T00:17:44;1.80;;;1.35;;
53977;SDS011;39886;47.984;-1.586;2023-06-26T00:20:10;1.40;;;1.30;;
53977;SDS011;39886;47.984;-1.586;2023-06-26T00:22:36;1.42;;;1.30;;
53977;SDS011;39886;47.984;-1.586;2023-06-26T00:25:06;1.50;;;1.38;;
53977;SDS011;39886;47.984;-1.586;2023-06-26T00:27:32;1.88;;;1.20;;
53977;SDS011;39886;47.984;-1.586;2023-06-26T00:29:57;1.52;;;1.38;;
53977;SDS011;39886;47.984;-1.586;2023-06-26T00:32:23;1.50;;;1.40;;
53977;SDS011;39886;47.984;-1.586;2023-06-26T00:34:49;1.83;;;1.40;;
53977;SDS011;39886;47.984;-1.586;2023-06-26T00:37:14;1.70;;;1.35;;
53977;SDS011;39886;47.984;-1.586;2023-06-26T00:39:40;1.75;;;1.33;;
53977;SDS011;39886;47.984;-1.586;2023-06-26T00:42:06;1.77;;;1.20;;
53977;SDS011;39886;47.984;-1.586;2023-06-26T00:44:32;1.70;;;1.30;;
53977;SDS011;39886;47.984;-1.586;2023-06-26T00:46:58;1.60;;;1.40;;
53977;SDS011;39886;47.984;-1.586;2023-06-26T00:49:24;1.30;;;1.15;;
53977;SDS011;39886;47.984;-1.586;2023-06-26T00:51:51;2.20;;;1.30;;
53977;SDS011;39886;47.984;-1.586;2023-06-26T00:54:17;1.60;;;1.40;;
53977;SDS011;39886;47.984;-1.586;2023-06-26T00:56:45;2.38;;;1.30;;
53977;SDS011;39886;47.984;-1.586;2023-06-26T00:59:14;1.70;;;1.20;;
53977;SDS011;39886;47.984;-1.586;2023-06-26T01:01:40;1.20;;;1.10;;
53977;SDS011;39886;47.984;-1.586;2023-06-26T01:04:06;1.83;;;1.33;;
53977;SDS011;39886;47.984;-1.586;2023-06-26T01:06:31;2.25;;;1.30;;
53977;SDS011;39886;47.984;-1.586;2023-06-26T01:09:02;1.27;;;1.17;;
53977;SDS011;39886;47.984;-1.586;2023-06-26T01:11:28;1.40;;;1.30;;
53977;SDS011;39886;47.984;-1.586;2023-06-26T01:13:54;1.50;;;1.30;;
53977;SDS011;39886;47.984;-1.586;2023-06-26T01:16:21;1.75;;;1.10;;
53977;SDS011;39886;47.984;-1.586;2023-06-26T01:18:49;1.35;;;1.10;;
53977;SDS011;39886;47.984;-1.586;2023-06-26T01:21:15;2.42;;;1.35;;
53977;SDS011;39886;47.984;-1.586;2023-06-26T01:26:31;1.23;;;1.13;;
53977;SDS011;39886;47.984;-1.586;2023-06-26T01:29:00;1.45;;;1.23;;
53977;SDS011;39886;47.984;-1.586;2023-06-26T01:31:28;1.35;;;1.15;;
53977;SDS011;39886;47.984;-1.586;2023-06-26T01:33:56;1.45;;;1.30;;
53977;SDS011;39886;47.984;-1.586;2023-06-26T01:36:24;1.73;;;1.10;;
53977;SDS011;39886;47.984;-1.586;2023-06-26T01:38:50;2.15;;;1.40;;
53977;SDS011;39886;47.984;-1.586;2023-06-26T01:41:16;1.48;;;1.38;;
53977;SDS011;39886;47.984;-1.586;2023-06-26T01:46:25;1.38;;;1.27;;
53977;SDS011;39886;47.984;-1.586;2023-06-26T01:49:20;1.27;;;1.17;;
53977;SDS011;39886;47.984;-1.586;2023-06-26T01:54:32;1.30;;;1.20;;
53977;SDS011;39886;47.984;-1.586;2023-06-26T01:57:03;1.43;;;1.17;;
53977;SDS011;39886;47.984;-1.586;2023-06-26T01:59:31;1.27;;;1.10;;
53977;SDS011;39886;47.984;-1.586;2023-06-26T02:02:00;1.65;;;1.50;;
53977;SDS011;39886;47.984;-1.586;2023-06-26T02:04:26;1.02;;;1.00;;
53977;SDS011;39886;47.984;-1.586;2023-06-26T02:06:52;1.23;;;1.13;;
53977;SDS011;39886;47.984;-1.586;2023-06-26T02:09:17;1.77;;;1.55;;
53977;SDS011;39886;47.984;-1.586;2023-06-26T02:11:44;1.58;;;1.20;;
53977;SDS011;39886;47.984;-1.586;2023-06-26T02:14:09;1.52;;;1.17;;
53977;SDS011;39886;47.984;-1.586;2023-06-26T02:16:36;1.23;;;1.10;;
53977;SDS011;39886;47.984;-1.586;2023-06-26T02:19:01;1.30;;;1.20;;
53977;SDS011;39886;47.984;-1.586;2023-06-26T02:21:27;1.20;;;1.08;;
53977;SDS011;39886;47.984;-1.586;2023-06-26T02:23:53;2.50;;;1.45;;
53977;SDS011;39886;47.984;-1.586;2023-06-26T02:26:18;1.30;;;1.20;;
53977;SDS011;39886;47.984;-1.586;2023-06-26T02:28:44;1.75;;;1.20;;
53977;SDS011;39886;47.984;-1.586;2023-06-26T02:31:10;1.95;;;1.20;;
53977;SDS011;39886;47.984;-1.586;2023-06-26T02:33:35;1.48;;;1.17;;
53977;SDS011;39886;47.984;-1.586;2023-06-26T02:36:01;1.50;;;1.00;;
53977;SDS011;39886;47.984;-1.586;2023-06-26T02:38:27;1.60;;;1.30;;
53977;SDS011;39886;47.984;-1.586;2023-06-26T02:40:53;1.13;;;1.02;;
53977;SDS011;39886;47.984;-1.586;2023-06-26T02:43:18;1.45;;;1.25;;
53977;SDS011;39886;47.984;-1.586;2023-06-26T02:45:44;0.98;;;0.95;;
53977;SDS011;39886;47.984;-1.586;2023-06-26T02:48:10;1.60;;;1.10;;
53977;SDS011;39886;47.984;-1.586;2023-06-26T02:50:35;1.45;;;1.20;;
53977;SDS011;39886;47.984;-1.586;2023-06-26T02:53:01;1.20;;;1.10;;
53977;SDS011;39886;47.984;-1.586;2023-06-26T02:55:27;1.30;;;1.20;;
53977;SDS011;39886;47.984;-1.586;2023-06-26T02:57:52;1.30;;;1.20;;
53977;SDS011;39886;47.984;-1.586;2023-06-26T03:00:18;1.88;;;1.20;;
53977;SDS011;39886;47.984;-1.586;2023-06-26T03:02:44;1.60;;;1.10;;
53977;SDS011;39886;47.984;-1.586;2023-06-26T03:05:10;1.52;;;1.23;;
53977;SDS011;39886;47.984;-1.586;2023-06-26T03:07:38;1.30;;;1.20;;
53977;SDS011;39886;47.984;-1.586;2023-06-26T03:10:04;1.15;;;1.00;;
53977;SDS011;39886;47.984;-1.586;2023-06-26T03:12:30;1.20;;;1.10;;
53977;SDS011;39886;47.984;-1.586;2023-06-26T03:14:56;1.23;;;1.13;;
53977;SDS011;39886;47.984;-1.586;2023-06-26T03:17:21;1.52;;;1.13;;
53977;SDS011;39886;47.984;-1.586;2023-06-26T03:19:47;1.58;;;1.10;;
53977;SDS011;39886;47.984;-1.586;2023-06-26T03:22:13;1.75;;;1.17;;
53977;SDS011;39886;47.984;-1.586;2023-06-26T03:24:39;1.88;;;1.10;;
53977;SDS011;39886;47.984;-1.586;2023-06-26T03:27:04;1.42;;;1.20;;
53977;SDS011;39886;47.984;-1.586;2023-06-26T03:29:30;1.55;;;1.15;;
53977;SDS011;39886;47.984;-1.586;2023-06-26T03:31:56;1.20;;;1.10;;
53977;SDS011;39886;47.984;-1.586;2023-06-26T03:34:22;1.13;;;1.00;;
53977;SDS011;39886;47.984;-1.586;2023-06-26T03:36:47;1.42;;;1.33;;
53977;SDS011;39886;47.984;-1.586;2023-06-26T03:39:13;1.00;;;0.80;;
53977;SDS011;39886;47.984;-1.586;2023-06-26T03:41:39;1.50;;;1.08;;
53977;SDS011;39886;47.984;-1.586;2023-06-26T03:44:04;1.92;;;1.30;;
53977;SDS011;39886;47.984;-1.586;2023-06-26T03:46:30;1.65;;;1.20;;
53977;SDS011;39886;47.984;-1.586;2023-06-26T03:48:56;1.63;;;1.20;;
53977;SDS011;39886;47.984;-1.586;2023-06-26T03:51:22;1.17;;;1.10;;
53977;SDS011;39886;47.984;-1.586;2023-06-26T03:53:47;1.40;;;1.30;;
53977;SDS011;39886;47.984;-1.586;2023-06-26T03:56:13;1.23;;;1.10;;
53977;SDS011;39886;47.984;-1.586;2023-06-26T03:58:39;1.20;;;1.10;;
53977;SDS011;39886;47.984;-1.586;2023-06-26T04:01:04;1.70;;;1.30;;
53977;SDS011;39886;47.984;-1.586;2023-06-26T04:03:30;1.30;;;0.98;;
53977;SDS011;39886;47.984;-1.586;2023-06-26T04:05:56;1.02;;;1.00;;
53977;SDS011;39886;47.984;-1.586;2023-06-26T04:08:23;1.77;;;1.30;;
53977;SDS011;39886;47.984;-1.586;2023-06-26T04:10:51;1.40;;;1.10;;
53977;SDS011;39886;47.984;-1.586;2023-06-26T04:13:17;1.20;;;1.10;;
53977;SDS011;39886;47.984;-1.586;2023-06-26T04:15:43;1.65;;;1.00;;
53977;SDS011;39886;47.984;-1.586;2023-06-26T04:18:09;1.08;;;1.00;;
53977;SDS011;39886;47.984;-1.586;2023-06-26T04:20:39;2.60;;;1.50;;
53977;SDS011;39886;47.984;-1.586;2023-06-26T04:23:06;1.38;;;1.05;;
53977;SDS011;39886;47.984;-1.586;2023-06-26T04:25:31;1.50;;;1.10;;
53977;SDS011;39886;47.984;-1.586;2023-06-26T04:27:57;1.23;;;1.02;;
53977;SDS011;39886;47.984;-1.586;2023-06-26T04:30:23;1.17;;;1.10;;
53977;SDS011;39886;47.984;-1.586;2023-06-26T04:32:48;1.58;;;1.15;;
53977;SDS011;39886;47.984;-1.586;2023-06-26T04:35:14;1.10;;;0.90;;
53977;SDS011;39886;47.984;-1.586;2023-06-26T04:37:40;1.10;;;1.00;;
53977;SDS011;39886;47.984;-1.586;2023-06-26T04:40:06;2.38;;;1.08;;
53977;SDS011;39886;47.984;-1.586;2023-06-26T04:42:34;1.25;;;0.90;;
53977;SDS011;39886;47.984;-1.586;2023-06-26T04:45:00;1.45;;;1.30;;
53977;SDS011;39886;47.984;-1.586;2023-06-26T04:47:27;1.52;;;1.10;;
53977;SDS011;39886;47.984;-1.586;2023-06-26T04:49:53;2.13;;;1.25;;
53977;SDS011;39886;47.984;-1.586;2023-06-26T04:52:20;1.30;;;1.05;;
53977;SDS011;39886;47.984;-1.586;2023-06-26T04:54:45;1.88;;;1.10;;
53977;SDS011;39886;47.984;-1.586;2023-06-26T04:57:11;1.75;;;1.30;;
53977;SDS011;39886;47.984;-1.586;2023-06-26T04:59:37;1.25;;;1.10;;
53977;SDS011;39886;47.984;-1.586;2023-06-26T05:02:03;1.33;;;1.05;;
53977;SDS011;39886;47.984;-1.586;2023-06-26T05:04:29;1.38;;;1.00;;
53977;SDS011;39886;47.984;-1.586;2023-06-26T05:06:55;1.48;;;0.90;;
53977;SDS011;39886;47.984;-1.586;2023-06-26T05:09:21;1.65;;;1.00;;
53977;SDS011;39886;47.984;-1.586;2023-06-26T05:11:47;1.42;;;1.15;;
53977;SDS011;39886;47.984;-1.586;2023-06-26T05:14:12;1.17;;;0.98;;
53977;SDS011;39886;47.984;-1.586;2023-06-26T05:16:38;1.15;;;1.08;;
53977;SDS011;39886;47.984;-1.586;2023-06-26T05:19:04;1.55;;;1.17;;
53977;SDS011;39886;47.984;-1.586;2023-06-26T05:21:30;1.48;;;1.05;;
53977;SDS011;39886;47.984;-1.586;2023-06-26T05:23:56;2.03;;;1.08;;
53977;SDS011;39886;47.984;-1.586;2023-06-26T05:26:23;1.55;;;1.10;;
53977;SDS011;39886;47.984;-1.586;2023-06-26T05:28:49;0.85;;;0.85;;
53977;SDS011;39886;47.984;-1.586;2023-06-26T05:31:15;2.15;;;1.20;;
53977;SDS011;39886;47.984;-1.586;2023-06-26T05:33:43;1.20;;;1.10;;
53977;SDS011;39886;47.984;-1.586;2023-06-26T05:36:12;1.10;;;0.90;;
53977;SDS011;39886;47.984;-1.586;2023-06-26T05:38:39;1.15;;;1.00;;
53977;SDS011;39886;47.984;-1.586;2023-06-26T05:41:05;1.55;;;1.20;;
53977;SDS011;39886;47.984;-1.586;2023-06-26T05:43:31;0.80;;;0.80;;
53977;SDS011;39886;47.984;-1.586;2023-06-26T05:45:57;0.98;;;0.90;;
53977;SDS011;39886;47.984;-1.586;2023-06-26T05:48:23;2.08;;;1.13;;
53977;SDS011;39886;47.984;-1.586;2023-06-26T05:50:49;1.15;;;0.90;;
53977;SDS011;39886;47.984;-1.586;2023-06-26T05:53:15;1.15;;;1.00;;
53977;SDS011;39886;47.984;-1.586;2023-06-26T05:55:41;1.25;;;1.00;;
53977;SDS011;39886;47.984;-1.586;2023-06-26T05:58:07;1.05;;;1.00;;
53977;SDS011;39886;47.984;-1.586;2023-06-26T06:00:35;2.20;;;1.50;;
53977;SDS011;39886;47.984;-1.586;2023-06-26T06:03:01;1.23;;;1.00;;
53977;SDS011;39886;47.984;-1.586;2023-06-26T06:05:26;1.10;;;1.00;;
53977;SDS011;39886;47.984;-1.586;2023-06-26T06:07:52;1.20;;;1.08;;
53977;SDS011;39886;47.984;-1.586;2023-06-26T06:10:18;3.10;;;0.90;;
53977;SDS011;39886;47.984;-1.586;2023-06-26T06:12:44;1.10;;;1.00;;
53977;SDS011;39886;47.984;-1.586;2023-06-26T06:15:09;1.73;;;1.20;;
53977;SDS011;39886;47.984;-1.586;2023-06-26T06:17:35;3.58;;;1.40;;
53977;SDS011;39886;47.984;-1.586;2023-06-26T06:20:01;3.42;;;1.40;;
53977;SDS011;39886;47.984;-1.586;2023-06-26T06:22:26;7.43;;;1.90;;
53977;SDS011;39886;47.984;-1.586;2023-06-26T06:24:52;4.13;;;1.77;;
53977;SDS011;39886;47.984;-1.586;2023-06-26T06:27:18;5.47;;;1.80;;
53977;SDS011;39886;47.984;-1.586;2023-06-26T06:29:43;17.38;;;2.97;;
53977;SDS011;39886;47.984;-1.586;2023-06-26T06:32:09;12.73;;;2.28;;
53977;SDS011;39886;47.984;-1.586;2023-06-26T06:34:35;28.75;;;3.00;;
53977;SDS011;39886;47.984;-1.586;2023-06-26T06:37:01;9.48;;;2.65;;
53977;SDS011;39886;47.984;-1.586;2023-06-26T06:39:28;11.07;;;2.47;;
53977;SDS011;39886;47.984;-1.586;2023-06-26T06:41:53;12.30;;;2.67;;
53977;SDS011;39886;47.984;-1.586;2023-06-26T06:44:19;15.75;;;2.88;;
53977;SDS011;39886;47.984;-1.586;2023-06-26T06:46:45;10.75;;;2.65;;
53977;SDS011;39886;47.984;-1.586;2023-06-26T06:49:10;12.70;;;2.40;;
53977;SDS011;39886;47.984;-1.586;2023-06-26T06:51:36;14.30;;;2.42;;
53977;SDS011;39886;47.984;-1.586;2023-06-26T06:54:02;8.02;;;2.40;;
53977;SDS011;39886;47.984;-1.586;2023-06-26T06:56:28;10.23;;;2.67;;
53977;SDS011;39886;47.984;-1.586;2023-06-26T06:58:53;16.15;;;3.40;;
53977;SDS011;39886;47.984;-1.586;2023-06-26T07:01:19;13.60;;;2.83;;
53977;SDS011;39886;47.984;-1.586;2023-06-26T07:03:45;12.35;;;2.60;;
53977;SDS011;39886;47.984;-1.586;2023-06-26T07:06:10;9.63;;;2.53;;
53977;SDS011;39886;47.984;-1.586;2023-06-26T07:08:36;14.05;;;2.80;;
53977;SDS011;39886;47.984;-1.586;2023-06-26T07:11:02;11.52;;;2.70;;
53977;SDS011;39886;47.984;-1.586;2023-06-26T07:13:28;11.07;;;2.40;;
53977;SDS011;39886;47.984;-1.586;2023-06-26T07:15:53;11.55;;;2.90;;
53977;SDS011;39886;47.984;-1.586;2023-06-26T07:18:19;9.85;;;2.30;;
53977;SDS011;39886;47.984;-1.586;2023-06-26T07:20:45;9.20;;;2.40;;
53977;SDS011;39886;47.984;-1.586;2023-06-26T07:23:11;8.68;;;2.40;;
53977;SDS011;39886;47.984;-1.586;2023-06-26T07:25:36;14.13;;;2.50;;
53977;SDS011;39886;47.984;-1.586;2023-06-26T07:28:02;10.25;;;2.58;;
53977;SDS011;39886;47.984;-1.586;2023-06-26T07:30:28;9.20;;;1.90;;
53977;SDS011;39886;47.984;-1.586;2023-06-26T07:32:53;6.68;;;2.03;;
53977;SDS011;39886;47.984;-1.586;2023-06-26T07:35:19;9.90;;;2.30;;
53977;SDS011;39886;47.984;-1.586;2023-06-26T07:37:45;9.02;;;2.13;;
53977;SDS011;39886;47.984;-1.586;2023-06-26T07:40:11;16.25;;;2.58;;
53977;SDS011;39886;47.984;-1.586;2023-06-26T07:42:37;11.45;;;2.40;;
53977;SDS011;39886;47.984;-1.586;2023-06-26T07:45:04;6.50;;;2.00;;
53977;SDS011;39886;47.984;-1.586;2023-06-26T07:47:35;12.45;;;2.60;;
53977;SDS011;39886;47.984;-1.586;2023-06-26T07:50:02;8.52;;;2.30;;
53977;SDS011;39886;47.984;-1.586;2023-06-26T07:52:28;11.25;;;2.10;;
53977;SDS011;39886;47.984;-1.586;2023-06-26T07:54:55;13.05;;;2.63;;
53977;SDS011;39886;47.984;-1.586;2023-06-26T07:57:21;7.70;;;1.73;;
53977;SDS011;39886;47.984;-1.586;2023-06-26T07:59:47;9.50;;;1.90;;
53977;SDS011;39886;47.984;-1.586;2023-06-26T08:02:13;6.50;;;1.95;;
53977;SDS011;39886;47.984;-1.586;2023-06-26T08:04:38;10.55;;;2.55;;
53977;SDS011;39886;47.984;-1.586;2023-06-26T08:07:04;14.32;;;2.85;;
53977;SDS011;39886;47.984;-1.586;2023-06-26T08:09:31;7.05;;;1.80;;
53977;SDS011;39886;47.984;-1.586;2023-06-26T08:11:57;9.80;;;2.50;;
53977;SDS011;39886;47.984;-1.586;2023-06-26T08:14:23;6.55;;;2.10;;
53977;SDS011;39886;47.984;-1.586;2023-06-26T08:16:49;8.05;;;2.00;;
53977;SDS011;39886;47.984;-1.586;2023-06-26T08:19:16;7.78;;;2.05;;
53977;SDS011;39886;47.984;-1.586;2023-06-26T08:21:43;7.25;;;1.98;;
53977;SDS011;39886;47.984;-1.586;2023-06-26T08:24:10;10.70;;;2.10;;
53977;SDS011;39886;47.984;-1.586;2023-06-26T08:26:36;10.88;;;2.03;;
53977;SDS011;39886;47.984;-1.586;2023-06-26T08:29:02;19.45;;;2.50;;
53977;SDS011;39886;47.984;-1.586;2023-06-26T08:31:36;8.35;;;2.10;;
53977;SDS011;39886;47.984;-1.586;2023-06-26T08:34:03;14.52;;;2.72;;
53977;SDS011;39886;47.984;-1.586;2023-06-26T08:36:30;9.27;;;1.90;;
53977;SDS011;39886;47.984;-1.586;2023-06-26T08:38:56;7.40;;;1.90;;
53977;SDS011;39886;47.984;-1.586;2023-06-26T08:41:22;9.80;;;2.25;;
53977;SDS011;39886;47.984;-1.586;2023-06-26T08:43:48;10.60;;;2.25;;
53977;SDS011;39886;47.984;-1.586;2023-06-26T08:46:16;8.05;;;1.90;;
53977;SDS011;39886;47.984;-1.586;2023-06-26T08:48:43;8.02;;;1.85;;
53977;SDS011;39886;47.984;-1.586;2023-06-26T08:51:16;13.10;;;3.10;;
53977;SDS011;39886;47.984;-1.586;2023-06-26T08:53:55;14.75;;;2.58;;
53977;SDS011;39886;47.984;-1.586;2023-06-26T08:56:22;11.10;;;2.50;;
53977;SDS011;39886;47.984;-1.586;2023-06-26T08:58:50;9.32;;;2.15;;
53977;SDS011;39886;47.984;-1.586;2023-06-26T09:01:16;9.38;;;2.58;;
53977;SDS011;39886;47.984;-1.586;2023-06-26T09:03:42;9.25;;;2.80;;
53977;SDS011;39886;47.984;-1.586;2023-06-26T09:06:08;9.77;;;1.90;;
53977;SDS011;39886;47.984;-1.586;2023-06-26T09:08:34;12.40;;;2.80;;
53977;SDS011;39886;47.984;-1.586;2023-06-26T09:11:00;10.52;;;2.38;;
53977;SDS011;39886;47.984;-1.586;2023-06-26T09:13:28;5.63;;;2.10;;
53977;SDS011;39886;47.984;-1.586;2023-06-26T09:15:55;6.68;;;1.90;;
53977;SDS011;39886;47.984;-1.586;2023-06-26T09:18:21;9.10;;;2.30;;
53977;SDS011;39886;47.984;-1.586;2023-06-26T09:20:47;9.05;;;2.10;;
53977;SDS011;39886;47.984;-1.586;2023-06-26T09:23:13;9.82;;;2.45;;
53977;SDS011;39886;47.984;-1.586;2023-06-26T09:25:39;9.10;;;1.92;;
53977;SDS011;39886;47.984;-1.586;2023-06-26T09:28:06;5.00;;;1.73;;
53977;SDS011;39886;47.984;-1.586;2023-06-26T09:30:33;11.50;;;2.38;;
53977;SDS011;39886;47.984;-1.586;2023-06-26T09:33:19;6.90;;;1.80;;
53977;SDS011;39886;47.984;-1.586;2023-06-26T09:35:45;9.25;;;1.90;;
53977;SDS011;39886;47.984;-1.586;2023-06-26T09:38:12;7.43;;;1.80;;
53977;SDS011;39886;47.984;-1.586;2023-06-26T09:40:39;7.45;;;1.90;;
53977;SDS011;39886;47.984;-1.586;2023-06-26T09:43:05;9.82;;;2.15;;
53977;SDS011;39886;47.984;-1.586;2023-06-26T09:45:32;8.48;;;2.10;;
53977;SDS011;39886;47.984;-1.586;2023-06-26T09:48:01;10.25;;;2.00;;
53977;SDS011;39886;47.984;-1.586;2023-06-26T09:50:28;9.00;;;2.60;;
53977;SDS011;39886;47.984;-1.586;2023-06-26T09:52:54;7.82;;;2.10;;
53977;SDS011;39886;47.984;-1.586;2023-06-26T09:55:20;5.47;;;1.70;;
53977;SDS011;39886;47.984;-1.586;2023-06-26T09:57:47;10.50;;;2.70;;
53977;SDS011;39886;47.984;-1.586;2023-06-26T10:00:17;11.52;;;2.50;;
53977;SDS011;39886;47.984;-1.586;2023-06-26T10:02:43;5.47;;;2.15;;
53977;SDS011;39886;47.984;-1.586;2023-06-26T10:05:09;12.07;;;2.22;;
53977;SDS011;39886;47.984;-1.586;2023-06-26T10:07:35;7.85;;;2.22;;
53977;SDS011;39886;47.984;-1.586;2023-06-26T10:10:02;10.52;;;2.05;;
53977;SDS011;39886;47.984;-1.586;2023-06-26T10:12:30;11.00;;;2.42;;
53977;SDS011;39886;47.984;-1.586;2023-06-26T10:14:56;7.30;;;2.10;;
53977;SDS011;39886;47.984;-1.586;2023-06-26T10:17:24;4.88;;;1.70;;
53977;SDS011;39886;47.984;-1.586;2023-06-26T10:19:55;6.13;;;1.63;;
53977;SDS011;39886;47.984;-1.586;2023-06-26T10:22:25;4.22;;;1.40;;
53977;SDS011;39886;47.984;-1.586;2023-06-26T10:24:55;4.10;;;1.60;;
53977;SDS011;39886;47.984;-1.586;2023-06-26T10:27:25;7.50;;;1.50;;
53977;SDS011;39886;47.984;-1.586;2023-06-26T10:29:57;5.65;;;1.80;;
53977;SDS011;39886;47.984;-1.586;2023-06-26T10:32:27;6.03;;;2.10;;
53977;SDS011;39886;47.984;-1.586;2023-06-26T10:34:54;7.72;;;2.10;;
53977;SDS011;39886;47.984;-1.586;2023-06-26T10:37:21;7.85;;;1.92;;
53977;SDS011;39886;47.984;-1.586;2023-06-26T10:40:05;6.43;;;1.80;;
53977;SDS011;39886;47.984;-1.586;2023-06-26T10:42:35;10.18;;;1.77;;
53977;SDS011;39886;47.984;-1.586;2023-06-26T10:45:09;10.32;;;1.92;;
53977;SDS011;39886;47.984;-1.586;2023-06-26T10:47:39;9.65;;;2.10;;
53977;SDS011;39886;47.984;-1.586;2023-06-26T10:53:08;5.57;;;1.73;;
53977;SDS011;39886;47.984;-1.586;2023-06-26T10:55:41;6.40;;;1.90;;
53977;SDS011;39886;47.984;-1.586;2023-06-26T11:03:47;4.60;;;1.90;;
53977;SDS011;39886;47.984;-1.586;2023-06-26T11:06:17;6.93;;;1.63;;
53977;SDS011;39886;47.984;-1.586;2023-06-26T11:08:50;9.77;;;2.05;;
53977;SDS011;39886;47.984;-1.586;2023-06-26T11:11:21;14.38;;;2.92;;
53977;SDS011;39886;47.984;-1.586;2023-06-26T11:13:47;9.70;;;2.97;;
53977;SDS011;39886;47.984;-1.586;2023-06-26T11:16:14;7.18;;;2.00;;
53977;SDS011;39886;47.984;-1.586;2023-06-26T11:18:40;14.05;;;2.05;;
53977;SDS011;39886;47.984;-1.586;2023-06-26T11:21:10;7.50;;;1.98;;
53977;SDS011;39886;47.984;-1.586;2023-06-26T11:28:56;6.40;;;1.90;;
53977;SDS011;39886;47.984;-1.586;2023-06-26T11:31:29;3.17;;;1.70;;
53977;SDS011;39886;47.984;-1.586;2023-06-26T11:33:56;8.57;;;2.22;;
53977;SDS011;39886;47.984;-1.586;2023-06-26T11:36:28;8.65;;;1.70;;
53977;SDS011;39886;47.984;-1.586;2023-06-26T11:38:57;10.07;;;1.98;;
53977;SDS011;39886;47.984;-1.586;2023-06-26T11:41:25;10.77;;;2.13;;
53977;SDS011;39886;47.984;-1.586;2023-06-26T11:43:53;6.90;;;1.65;;
53977;SDS011;39886;47.984;-1.586;2023-06-26T11:46:20;5.55;;;1.83;;
53977;SDS011;39886;47.984;-1.586;2023-06-26T11:48:46;9.07;;;1.80;;
53977;SDS011;39886;47.984;-1.586;2023-06-26T11:51:13;11.05;;;2.05;;
53977;SDS011;39886;47.984;-1.586;2023-06-26T11:53:40;7.10;;;2.15;;
53977;SDS011;39886;47.984;-1.586;2023-06-26T11:56:10;7.65;;;2.13;;
53977;SDS011;39886;47.984;-1.586;2023-06-26T11:58:59;15.27;;;2.30;;
53977;SDS011;39886;47.984;-1.586;2023-06-26T12:04:10;8.77;;;1.95;;
53977;SDS011;39886;47.984;-1.586;2023-06-26T12:06:40;4.00;;;1.50;;
53977;SDS011;39886;47.984;-1.586;2023-06-26T12:09:10;4.30;;;1.67;;
53977;SDS011;39886;47.984;-1.586;2023-06-26T12:11:38;8.15;;;1.63;;
53977;SDS011;39886;47.984;-1.586;2023-06-26T12:14:05;5.45;;;2.03;;
53977;SDS011;39886;47.984;-1.586;2023-06-26T12:16:35;13.18;;;2.63;;
53977;SDS011;39886;47.984;-1.586;2023-06-26T12:19:05;9.88;;;2.40;;
53977;SDS011;39886;47.984;-1.586;2023-06-26T12:24:07;9.10;;;2.55;;
53977;SDS011;39886;47.984;-1.586;2023-06-26T12:26:34;14.65;;;2.53;;
53977;SDS011;39886;47.984;-1.586;2023-06-26T12:29:05;8.90;;;2.53;;
53977;SDS011;39886;47.984;-1.586;2023-06-26T12:31:33;11.77;;;2.63;;
53977;SDS011;39886;47.984;-1.586;2023-06-26T12:33:59;7.03;;;1.80;;
53977;SDS011;39886;47.984;-1.586;2023-06-26T12:36:26;13.82;;;2.78;;
53977;SDS011;39886;47.984;-1.586;2023-06-26T12:38:54;6.25;;;1.65;;
53977;SDS011;39886;47.984;-1.586;2023-06-26T12:41:20;7.13;;;1.85;;
53977;SDS011;39886;47.984;-1.586;2023-06-26T12:43:49;4.60;;;1.60;;
53977;SDS011;39886;47.984;-1.586;2023-06-26T12:46:20;5.15;;;1.70;;
53977;SDS011;39886;47.984;-1.586;2023-06-26T12:49:00;6.10;;;2.00;;
53977;SDS011;39886;47.984;-1.586;2023-06-26T12:51:26;6.35;;;1.75;;
53977;SDS011;39886;47.984;-1.586;2023-06-26T12:53:52;6.05;;;1.88;;
53977;SDS011;39886;47.984;-1.586;2023-06-26T12:56:18;6.95;;;1.80;;
53977;SDS011;39886;47.984;-1.586;2023-06-26T12:58:45;14.00;;;3.00;;
53977;SDS011;39886;47.984;-1.586;2023-06-26T13:01:10;14.63;;;2.20;;
53977;SDS011;39886;47.984;-1.586;2023-06-26T13:03:38;11.70;;;2.28;;
53977;SDS011;39886;47.984;-1.586;2023-06-26T13:06:05;6.95;;;2.20;;
53977;SDS011;39886;47.984;-1.586;2023-06-26T13:08:31;7.55;;;2.00;;
53977;SDS011;39886;47.984;-1.586;2023-06-26T13:10:56;5.43;;;2.05;;
53977;SDS011;39886;47.984;-1.586;2023-06-26T13:13:22;5.35;;;1.98;;
53977;SDS011;39886;47.984;-1.586;2023-06-26T13:15:48;3.28;;;1.48;;
53977;SDS011;39886;47.984;-1.586;2023-06-26T13:18:14;6.93;;;1.65;;
53977;SDS011;39886;47.984;-1.586;2023-06-26T13:20:40;5.57;;;1.80;;
53977;SDS011;39886;47.984;-1.586;2023-06-26T13:23:06;3.83;;;1.55;;
53977;SDS011;39886;47.984;-1.586;2023-06-26T13:25:32;4.72;;;2.03;;
53977;SDS011;39886;47.984;-1.586;2023-06-26T13:27:58;8.25;;;2.05;;
53977;SDS011;39886;47.984;-1.586;2023-06-26T13:30:24;2.13;;;1.17;;
53977;SDS011;39886;47.984;-1.586;2023-06-26T13:32:49;6.18;;;1.60;;
53977;SDS011;39886;47.984;-1.586;2023-06-26T13:35:15;3.38;;;1.50;;
53977;SDS011;39886;47.984;-1.586;2023-06-26T13:37:41;4.72;;;1.63;;
53977;SDS011;39886;47.984;-1.586;2023-06-26T13:40:07;7.47;;;2.03;;
53977;SDS011;39886;47.984;-1.586;2023-06-26T13:42:34;6.18;;;1.90;;
53977;SDS011;39886;47.984;-1.586;2023-06-26T13:45:01;5.55;;;1.73;;
53977;SDS011;39886;47.984;-1.586;2023-06-26T13:47:28;4.20;;;1.50;;
53977;SDS011;39886;47.984;-1.586;2023-06-26T13:49:54;3.83;;;1.48;;
53977;SDS011;39886;47.984;-1.586;2023-06-26T13:52:19;4.75;;;1.90;;
53977;SDS011;39886;47.984;-1.586;2023-06-26T13:54:45;5.25;;;1.55;;
53977;SDS011;39886;47.984;-1.586;2023-06-26T13:57:11;5.28;;;1.55;;
53977;SDS011;39886;47.984;-1.586;2023-06-26T13:59:37;4.85;;;1.92;;
53977;SDS011;39886;47.984;-1.586;2023-06-26T14:02:07;6.85;;;1.85;;
53977;SDS011;39886;47.984;-1.586;2023-06-26T14:04:33;5.70;;;1.60;;
53977;SDS011;39886;47.984;-1.586;2023-06-26T14:06:59;11.30;;;2.00;;
53977;SDS011;39886;47.984;-1.586;2023-06-26T14:09:24;5.35;;;1.40;;
53977;SDS011;39886;47.984;-1.586;2023-06-26T14:11:50;4.10;;;1.67;;
53977;SDS011;39886;47.984;-1.586;2023-06-26T14:14:16;5.93;;;1.88;;
53977;SDS011;39886;47.984;-1.586;2023-06-26T14:16:42;3.75;;;1.40;;
53977;SDS011;39886;47.984;-1.586;2023-06-26T14:19:08;4.32;;;1.50;;
53977;SDS011;39886;47.984;-1.586;2023-06-26T14:21:39;16.98;;;2.13;;
53977;SDS011;39886;47.984;-1.586;2023-06-26T14:24:05;14.10;;;2.08;;
53977;SDS011;39886;47.984;-1.586;2023-06-26T14:26:31;21.88;;;2.97;;
53977;SDS011;39886;47.984;-1.586;2023-06-26T14:28:58;20.75;;;3.47;;
53977;SDS011;39886;47.984;-1.586;2023-06-26T14:31:27;12.35;;;2.25;;
53977;SDS011;39886;47.984;-1.586;2023-06-26T14:33:53;7.57;;;2.22;;
53977;SDS011;39886;47.984;-1.586;2023-06-26T14:36:19;10.40;;;1.95;;
53977;SDS011;39886;47.984;-1.586;2023-06-26T14:38:45;5.40;;;1.60;;
53977;SDS011;39886;47.984;-1.586;2023-06-26T14:41:11;5.18;;;1.90;;
53977;SDS011;39886;47.984;-1.586;2023-06-26T14:43:38;5.22;;;1.70;;
53977;SDS011;39886;47.984;-1.586;2023-06-26T14:46:04;5.97;;;1.63;;
53977;SDS011;39886;47.984;-1.586;2023-06-26T14:48:29;10.63;;;2.20;;
53977;SDS011;39886;47.984;-1.586;2023-06-26T14:50:55;7.40;;;2.10;;
53977;SDS011;39886;47.984;-1.586;2023-06-26T14:53:21;4.40;;;1.50;;
53977;SDS011;39886;47.984;-1.586;2023-06-26T14:55:46;8.30;;;1.85;;